logo
Search for airport 
image banner adimage banner adimage banner ad
image banner ad

YYTWD - Yattlewondi

Located in Mungindi, Australia

ICAO - , IATA -

Data provided by Airmate  

General information

Coordinates: S28°44'25" E149°9'20"
Elevation is 585 feet MSL.
Magnetic variation is 10° East
View others Airports in Queensland

Operational data

Special qualification required
Current time UTC:
Current local time:
Weather at : - ( 0 km )
METAR: KAFP 171314Z AUTO 17003KT 10SM BKN050 26/18 A3023 RMK AO2 T02560183
View NOTAMs / SUP AIP / TFR affecting this airport [VIEW]
Communications frequencies: [VIEW]

Runways:

RWY identifierQFULength (ft)Width (ft)SurfaceLDA (ft)
31322°344421DIRT
13142°344421DIRT

Airport contact information

Address: Mungindi Australia

Satellite view of YYTWD